Time;durP1;ratioP1;P1;durP2;ratioP2;P2;SDS_P1;SDS_P2;PMS_P1;PMS_P2;Temp;Humidity;BMP_temperature;BMP_pressure;BME280_temperature;BME280_humidity;BME280_pressure;Samples;Min_cycle;Max_cycle;Signal;HPM_P1;HPM_P2
2021/12/19 00:00:16;;;;;;;1.95;1.60;;;;;;;;;;5109811;28;20208;-49
2021/12/19 00:03:01;;;;;;;1.40;1.30;;;;;;;;;;5090524;28;20193;-49
2021/12/19 00:10:55;;;;;;;1.40;1.30;;;;;;;;;;5100022;28;20220;-49
2021/12/19 00:13:24;;;;;;;1.45;1.35;;;;;;;;;;5088328;28;20182;-49
2021/12/19 00:15:50;;;;;;;1.33;1.20;;;;;;;;;;5100391;28;20334;-49
2021/12/19 00:18:16;;;;;;;1.40;1.30;;;;;;;;;;5094189;28;20288;-49
2021/12/19 00:20:42;;;;;;;1.30;1.20;;;;;;;;;;5095341;28;20324;-50
2021/12/19 00:23:08;;;;;;;1.40;1.30;;;;;;;;;;5092119;28;20185;-48
2021/12/19 00:25:34;;;;;;;1.30;1.20;;;;;;;;;;5105774;28;20185;-50
2021/12/19 00:28:00;;;;;;;1.30;1.20;;;;;;;;;;5096220;28;20218;-50
2021/12/19 00:30:26;;;;;;;1.20;1.10;;;;;;;;;;5093232;28;20266;-49
2021/12/19 00:32:52;;;;;;;1.60;1.35;;;;;;;;;;5104565;28;20462;-49
2021/12/19 00:35:19;;;;;;;1.52;1.42;;;;;;;;;;5101810;28;20185;-50
2021/12/19 00:37:45;;;;;;;1.15;1.05;;;;;;;;;;5103757;28;20260;-49
2021/12/19 00:40:11;;;;;;;1.42;1.10;;;;;;;;;;5097750;28;20242;-50
2021/12/19 00:42:37;;;;;;;1.10;1.10;;;;;;;;;;5099230;28;20453;-49
2021/12/19 00:45:13;;;;;;;1.30;1.20;;;;;;;;;;5098189;28;20387;-50
2021/12/19 00:47:39;;;;;;;1.25;1.10;;;;;;;;;;5098123;28;20195;-49
2021/12/19 00:50:05;;;;;;;1.20;1.10;;;;;;;;;;5104402;28;20868;-48
2021/12/19 00:52:31;;;;;;;2.80;1.33;;;;;;;;;;5101268;28;20194;-49
2021/12/19 00:54:57;;;;;;;0.85;0.85;;;;;;;;;;5103004;28;20185;-48
2021/12/19 00:57:23;;;;;;;1.20;1.10;;;;;;;;;;5098655;28;20312;-49
2021/12/19 00:59:49;;;;;;;1.10;1.00;;;;;;;;;;5104451;28;20181;-49
2021/12/19 01:02:15;;;;;;;1.20;1.10;;;;;;;;;;5102930;28;20177;-49
2021/12/19 01:04:41;;;;;;;0.90;0.90;;;;;;;;;;5102839;28;20169;-49
2021/12/19 01:07:07;;;;;;;2.20;1.05;;;;;;;;;;5109118;28;20672;-50
2021/12/19 01:09:33;;;;;;;1.20;1.10;;;;;;;;;;5088304;28;20197;-48
2021/12/19 01:11:59;;;;;;;1.20;1.10;;;;;;;;;;5089043;28;20212;-49
2021/12/19 01:14:25;;;;;;;1.13;1.02;;;;;;;;;;5088251;28;20460;-49
2021/12/19 01:16:51;;;;;;;1.10;1.00;;;;;;;;;;5095379;28;20264;-49
2021/12/19 01:19:17;;;;;;;1.25;1.15;;;;;;;;;;5099414;28;20829;-49
2021/12/19 01:21:45;;;;;;;1.08;0.98;;;;;;;;;;5096072;28;20296;-50
2021/12/19 01:24:11;;;;;;;1.13;1.00;;;;;;;;;;5089647;28;20177;-48
2021/12/19 01:26:37;;;;;;;1.20;1.10;;;;;;;;;;5094552;28;20186;-49
2021/12/19 01:29:03;;;;;;;0.90;0.90;;;;;;;;;;5097985;28;20217;-49
2021/12/19 01:31:29;;;;;;;1.33;1.00;;;;;;;;;;5101398;28;20189;-48
2021/12/19 01:33:55;;;;;;;1.08;1.08;;;;;;;;;;5088687;28;20291;-49
2021/12/19 01:36:21;;;;;;;1.23;1.10;;;;;;;;;;5097119;28;20188;-48
2021/12/19 01:38:47;;;;;;;0.98;0.88;;;;;;;;;;5107129;28;20188;-49
2021/12/19 01:41:13;;;;;;;1.05;0.95;;;;;;;;;;5107006;28;20230;-50
2021/12/19 01:43:39;;;;;;;1.50;1.02;;;;;;;;;;5097483;28;20213;-50
2021/12/19 01:46:05;;;;;;;1.02;0.90;;;;;;;;;;5106511;28;20192;-48
2021/12/19 01:48:31;;;;;;;1.13;0.95;;;;;;;;;;5095801;28;20198;-49
2021/12/19 01:50:57;;;;;;;0.88;0.88;;;;;;;;;;5111967;28;20181;-50
2021/12/19 01:53:23;;;;;;;1.20;1.10;;;;;;;;;;5107155;28;20307;-49
2021/12/19 01:55:50;;;;;;;1.50;0.93;;;;;;;;;;5099871;28;20212;-49
2021/12/19 01:58:17;;;;;;;1.42;1.08;;;;;;;;;;5099668;28;20216;-49
2021/12/19 02:00:44;;;;;;;1.38;1.02;;;;;;;;;;5114169;28;20201;-49
2021/12/19 02:03:11;;;;;;;1.20;1.10;;;;;;;;;;5104428;28;20196;-48
2021/12/19 02:05:37;;;;;;;1.20;1.10;;;;;;;;;;5106120;28;20197;-49
2021/12/19 02:08:04;;;;;;;1.10;1.00;;;;;;;;;;5108823;28;20262;-48
2021/12/19 02:10:31;;;;;;;0.85;0.85;;;;;;;;;;5100390;28;20573;-49
2021/12/19 02:12:59;;;;;;;1.95;0.80;;;;;;;;;;5094203;28;20561;-49
2021/12/19 02:15:26;;;;;;;1.20;1.10;;;;;;;;;;5099078;28;20449;-49
2021/12/19 02:17:54;;;;;;;0.82;0.80;;;;;;;;;;5101519;28;20469;-49
2021/12/19 02:20:20;;;;;;;0.73;0.73;;;;;;;;;;5107810;28;20330;-48
2021/12/19 02:22:46;;;;;;;1.20;1.10;;;;;;;;;;5103042;28;20256;-49
2021/12/19 02:25:14;;;;;;;0.82;0.82;;;;;;;;;;5102851;28;20793;-49
2021/12/19 02:27:40;;;;;;;1.00;0.90;;;;;;;;;;5110117;28;20181;-49
2021/12/19 02:30:08;;;;;;;1.10;0.98;;;;;;;;;;5101747;28;20208;-49
2021/12/19 02:32:35;;;;;;;0.77;0.77;;;;;;;;;;5098628;28;20587;-49
2021/12/19 02:35:05;;;;;;;1.00;0.90;;;;;;;;;;5099178;28;20189;-49
2021/12/19 02:48:09;;;;;;;0.82;0.82;;;;;;;;;;5091325;28;20282;-50
2021/12/19 02:48:28;;;;;;;0.90;0.90;;;;;;;;;;5101134;28;20360;-50
2021/12/19 02:50:55;;;;;;;0.93;0.93;;;;;;;;;;5105090;28;20223;-49
2021/12/19 02:53:32;;;;;;;1.10;1.00;;;;;;;;;;5101706;28;21119;-49
2021/12/19 02:55:58;;;;;;;1.15;1.05;;;;;;;;;;5105998;28;20185;-49
2021/12/19 02:58:25;;;;;;;1.00;0.82;;;;;;;;;;5102781;28;20231;-50
2021/12/19 03:00:51;;;;;;;0.70;0.70;;;;;;;;;;5099911;28;20534;-50
2021/12/19 03:03:17;;;;;;;0.98;0.90;;;;;;;;;;5097372;28;20277;-48
2021/12/19 03:05:43;;;;;;;0.90;0.80;;;;;;;;;;5101653;28;20189;-49
2021/12/19 03:08:10;;;;;;;0.75;0.75;;;;;;;;;;5084551;28;20279;-49
2021/12/19 03:19:01;;;;;;;0.90;0.90;;;;;;;;;;5094805;28;20345;-49
2021/12/19 03:21:27;;;;;;;0.80;0.70;;;;;;;;;;5099105;28;20292;-49
2021/12/19 03:23:53;;;;;;;0.85;0.85;;;;;;;;;;5104108;28;20181;-49
2021/12/19 03:26:19;;;;;;;1.05;0.98;;;;;;;;;;5108660;28;20180;-50
2021/12/19 03:28:46;;;;;;;0.80;0.80;;;;;;;;;;5091201;28;20196;-49
2021/12/19 03:31:12;;;;;;;0.90;0.90;;;;;;;;;;5099492;28;20476;-49
2021/12/19 03:33:38;;;;;;;0.70;0.70;;;;;;;;;;5090337;28;20206;-48
2021/12/19 03:36:05;;;;;;;0.88;0.85;;;;;;;;;;5094521;28;20182;-49
2021/12/19 03:38:33;;;;;;;0.60;0.60;;;;;;;;;;5103198;28;20194;-49
2021/12/19 03:41:20;;;;;;;0.70;0.70;;;;;;;;;;5103353;28;20208;-49
2021/12/19 03:43:46;;;;;;;0.80;0.80;;;;;;;;;;5085889;28;20189;-49
2021/12/19 03:46:12;;;;;;;1.08;0.90;;;;;;;;;;5098020;28;20181;-49
2021/12/19 03:48:38;;;;;;;0.75;0.75;;;;;;;;;;5102113;28;20223;-49
2021/12/19 03:51:04;;;;;;;0.88;0.88;;;;;;;;;;5092887;28;20557;-50
2021/12/19 03:53:31;;;;;;;0.82;0.82;;;;;;;;;;5101889;28;20198;-50
2021/12/19 03:55:57;;;;;;;1.00;0.68;;;;;;;;;;5108201;28;20191;-49
2021/12/19 03:58:23;;;;;;;0.70;0.70;;;;;;;;;;5098227;28;20492;-49
2021/12/19 04:00:51;;;;;;;0.80;0.70;;;;;;;;;;5108124;28;20586;-49
2021/12/19 04:03:19;;;;;;;0.80;0.80;;;;;;;;;;5092319;28;20212;-49
2021/12/19 04:05:46;;;;;;;0.82;0.82;;;;;;;;;;5090227;28;20396;-49
2021/12/19 04:08:12;;;;;;;0.90;0.90;;;;;;;;;;5098772;28;20591;-50
2021/12/19 04:10:38;;;;;;;1.25;1.15;;;;;;;;;;5107996;28;20626;-49
2021/12/19 04:13:05;;;;;;;0.80;0.80;;;;;;;;;;5089898;28;20205;-49
2021/12/19 04:15:31;;;;;;;0.80;0.80;;;;;;;;;;5085134;28;20186;-49
2021/12/19 04:17:57;;;;;;;1.08;0.93;;;;;;;;;;5084791;28;20277;-50
2021/12/19 04:20:23;;;;;;;0.85;0.85;;;;;;;;;;5091088;28;20209;-50
2021/12/19 04:22:51;;;;;;;0.70;0.70;;;;;;;;;;5085177;28;20238;-49
2021/12/19 04:25:17;;;;;;;1.13;0.70;;;;;;;;;;5102507;28;20178;-48
2021/12/19 04:27:43;;;;;;;1.55;0.95;;;;;;;;;;5102467;28;20532;-48
2021/12/19 04:30:11;;;;;;;1.42;0.93;;;;;;;;;;5101428;28;20447;-49
2021/12/19 04:32:42;;;;;;;1.98;0.80;;;;;;;;;;5088276;28;20182;-49
2021/12/19 04:35:10;;;;;;;0.88;0.80;;;;;;;;;;5096918;28;20212;-48
2021/12/19 04:40:13;;;;;;;0.65;0.65;;;;;;;;;;5103315;28;20220;-49
2021/12/19 04:58:54;;;;;;;0.90;0.77;;;;;;;;;;5101228;28;20213;-48
2021/12/19 05:01:59;;;;;;;1.05;0.90;;;;;;;;;;5104557;28;20229;-50
2021/12/19 05:14:03;;;;;;;1.15;0.90;;;;;;;;;;5110579;28;20189;-49
2021/12/19 05:15:07;;;;;;;1.50;0.70;;;;;;;;;;5104597;28;20281;-49
2021/12/19 05:17:33;;;;;;;2.35;0.70;;;;;;;;;;5103566;28;20185;-49
2021/12/19 05:20:15;;;;;;;1.65;1.10;;;;;;;;;;5113286;28;20201;-49
2021/12/19 05:22:48;;;;;;;1.35;1.00;;;;;;;;;;5093739;28;20277;-50
2021/12/19 05:25:14;;;;;;;0.60;0.60;;;;;;;;;;5102594;28;20545;-50
2021/12/19 05:27:44;;;;;;;0.60;0.60;;;;;;;;;;5100820;28;20188;-50
2021/12/19 05:30:12;;;;;;;0.82;0.77;;;;;;;;;;5101904;28;20637;-50
2021/12/19 05:32:38;;;;;;;1.08;0.85;;;;;;;;;;5108847;28;20267;-49
2021/12/19 05:35:05;;;;;;;0.82;0.82;;;;;;;;;;5095000;28;20563;-49
2021/12/19 05:45:45;;;;;;;1.10;0.70;;;;;;;;;;5111969;28;20211;-48
2021/12/19 05:48:10;;;;;;;1.33;0.85;;;;;;;;;;5100026;28;20192;-50
2021/12/19 05:50:38;;;;;;;1.13;1.00;;;;;;;;;;5106968;28;20283;-49
2021/12/19 05:53:04;;;;;;;0.70;0.70;;;;;;;;;;5093771;28;20240;-49
2021/12/19 05:55:30;;;;;;;0.73;0.73;;;;;;;;;;5107720;28;20197;-49
2021/12/19 05:57:56;;;;;;;0.70;0.70;;;;;;;;;;5107696;28;20185;-49
2021/12/19 06:00:22;;;;;;;2.47;0.70;;;;;;;;;;5106487;28;20961;-49
2021/12/19 06:02:48;;;;;;;0.80;0.73;;;;;;;;;;5106181;28;20212;-49
2021/12/19 06:05:15;;;;;;;0.68;0.68;;;;;;;;;;5101342;28;20177;-50
2021/12/19 06:07:41;;;;;;;5.68;0.90;;;;;;;;;;5097189;28;20182;-49
2021/12/19 06:10:08;;;;;;;4.60;2.63;;;;;;;;;;5101930;28;20246;-50
2021/12/19 06:12:34;;;;;;;484.02;406.00;;;;;;;;;;5109146;28;20464;-49
2021/12/19 06:15:00;;;;;;;784.63;699.85;;;;;;;;;;5099059;28;20208;-50
2021/12/19 06:17:26;;;;;;;377.75;302.75;;;;;;;;;;5097782;28;20178;-49
2021/12/19 06:19:53;;;;;;;505.98;429.35;;;;;;;;;;5099962;28;20200;-49
2021/12/19 06:22:19;;;;;;;1140.70;699.67;;;;;;;;;;5103548;28;20201;-49
2021/12/19 06:24:45;;;;;;;652.55;437.67;;;;;;;;;;5097179;28;20206;-51
2021/12/19 06:27:11;;;;;;;397.05;238.38;;;;;;;;;;5096179;28;20686;-49
2021/12/19 06:29:37;;;;;;;340.50;203.85;;;;;;;;;;5104392;28;20265;-50
2021/12/19 06:32:03;;;;;;;301.20;175.48;;;;;;;;;;5103421;28;20552;-50
2021/12/19 06:34:29;;;;;;;242.43;141.23;;;;;;;;;;5104478;28;20178;-50
2021/12/19 06:36:55;;;;;;;236.23;134.05;;;;;;;;;;5107156;28;20181;-50
2021/12/19 06:39:22;;;;;;;188.23;112.90;;;;;;;;;;5093482;28;20207;-49
2021/12/19 06:41:48;;;;;;;175.43;103.88;;;;;;;;;;5107446;28;20198;-49
2021/12/19 06:44:14;;;;;;;156.55;89.63;;;;;;;;;;5096034;28;20206;-51
2021/12/19 06:46:40;;;;;;;144.68;82.57;;;;;;;;;;5102868;28;20187;-50
2021/12/19 06:49:06;;;;;;;113.72;66.10;;;;;;;;;;5098525;28;20209;-49
2021/12/19 06:51:32;;;;;;;93.10;55.13;;;;;;;;;;5104088;28;20220;-49
2021/12/19 06:53:59;;;;;;;88.35;50.05;;;;;;;;;;5104319;28;20236;-49
2021/12/19 06:56:25;;;;;;;83.93;48.13;;;;;;;;;;5101960;28;20185;-49
2021/12/19 06:58:51;;;;;;;65.97;40.47;;;;;;;;;;5100266;28;20481;-48
2021/12/19 07:01:17;;;;;;;64.68;38.53;;;;;;;;;;5097939;28;20227;-49
2021/12/19 07:03:43;;;;;;;64.88;34.42;;;;;;;;;;5101406;28;20181;-46
2021/12/19 07:06:09;;;;;;;55.63;33.50;;;;;;;;;;5111974;28;20551;-46
2021/12/19 07:08:35;;;;;;;52.72;31.38;;;;;;;;;;5089483;28;20443;-49
2021/12/19 07:11:01;;;;;;;56.03;32.42;;;;;;;;;;5108197;28;20250;-48
2021/12/19 07:13:27;;;;;;;62.20;32.88;;;;;;;;;;5094650;28;20186;-49
2021/12/19 07:15:54;;;;;;;53.92;30.63;;;;;;;;;;5108733;28;20193;-46
2021/12/19 07:18:20;;;;;;;49.45;28.63;;;;;;;;;;5104975;28;20265;-46
2021/12/19 07:20:46;;;;;;;42.20;26.58;;;;;;;;;;5114627;28;20209;-46
2021/12/19 07:23:13;;;;;;;44.28;27.00;;;;;;;;;;5107871;28;20185;-47
2021/12/19 07:25:39;;;;;;;48.28;26.52;;;;;;;;;;5109279;28;20181;-48
2021/12/19 07:28:05;;;;;;;50.70;26.90;;;;;;;;;;5111772;28;20181;-47
2021/12/19 07:30:31;;;;;;;45.60;24.73;;;;;;;;;;5112230;28;20181;-47
2021/12/19 07:32:58;;;;;;;50.42;23.38;;;;;;;;;;5102463;28;20208;-47
2021/12/19 07:35:24;;;;;;;41.42;21.85;;;;;;;;;;5101532;28;20194;-48
2021/12/19 07:37:52;;;;;;;39.25;19.98;;;;;;;;;;5104770;28;20181;-50
2021/12/19 07:40:20;;;;;;;36.58;19.25;;;;;;;;;;5102607;28;20209;-48
2021/12/19 07:42:46;;;;;;;38.42;19.63;;;;;;;;;;5099855;28;20177;-48
2021/12/19 07:45:12;;;;;;;32.10;17.55;;;;;;;;;;5111720;28;20232;-47
2021/12/19 07:47:39;;;;;;;34.13;18.38;;;;;;;;;;5108049;28;20230;-48
2021/12/19 07:50:06;;;;;;;29.13;17.25;;;;;;;;;;5103435;28;20216;-48
2021/12/19 07:52:32;;;;;;;28.92;16.73;;;;;;;;;;5108555;28;20177;-48
2021/12/19 07:54:58;;;;;;;27.40;16.35;;;;;;;;;;5100252;28;20182;-48
2021/12/19 07:57:24;;;;;;;31.25;16.33;;;;;;;;;;5104958;28;20193;-48
2021/12/19 07:59:50;;;;;;;27.50;15.25;;;;;;;;;;5099422;28;20218;-48
2021/12/19 08:02:16;;;;;;;26.20;14.68;;;;;;;;;;5110313;28;20178;-48
2021/12/19 08:04:42;;;;;;;28.60;15.27;;;;;;;;;;5103993;28;20818;-48
2021/12/19 08:07:11;;;;;;;27.40;13.77;;;;;;;;;;5096473;28;20262;-48
2021/12/19 08:09:41;;;;;;;23.00;13.38;;;;;;;;;;5097742;28;20189;-48
2021/12/19 08:12:07;;;;;;;21.85;13.18;;;;;;;;;;5109505;28;20600;-48
2021/12/19 08:14:34;;;;;;;20.88;12.70;;;;;;;;;;5097803;28;20564;-48
2021/12/19 08:17:00;;;;;;;21.90;12.50;;;;;;;;;;5101613;28;20234;-48
2021/12/19 08:19:26;;;;;;;19.52;10.73;;;;;;;;;;5095613;28;20209;-47
2021/12/19 08:21:53;;;;;;;18.60;10.90;;;;;;;;;;5103788;28;20298;-48
2021/12/19 08:24:19;;;;;;;18.65;10.98;;;;;;;;;;5108897;28;20191;-48
2021/12/19 08:26:46;;;;;;;19.20;10.77;;;;;;;;;;5103363;28;20184;-48
2021/12/19 08:29:12;;;;;;;18.92;10.10;;;;;;;;;;5089937;28;20177;-48
2021/12/19 08:31:39;;;;;;;17.50;9.60;;;;;;;;;;5102678;28;20182;-48
2021/12/19 08:34:05;;;;;;;20.15;10.40;;;;;;;;;;5102194;28;20181;-48
2021/12/19 08:36:31;;;;;;;18.83;9.50;;;;;;;;;;5080786;28;20192;-48
2021/12/19 08:38:58;;;;;;;16.60;8.82;;;;;;;;;;5099483;28;20194;-48
2021/12/19 08:41:24;;;;;;;15.88;10.00;;;;;;;;;;5108520;28;20302;-48
2021/12/19 08:43:50;;;;;;;20.88;9.95;;;;;;;;;;5097292;28;20261;-48
2021/12/19 08:46:16;;;;;;;22.60;9.65;;;;;;;;;;5093797;28;20236;-48
2021/12/19 08:48:43;;;;;;;18.30;9.10;;;;;;;;;;5091281;28;20193;-48
2021/12/19 08:51:09;;;;;;;18.45;9.35;;;;;;;;;;5106663;28;20468;-48
2021/12/19 08:53:35;;;;;;;19.52;9.20;;;;;;;;;;5102275;28;20571;-48
2021/12/19 08:56:01;;;;;;;17.38;9.07;;;;;;;;;;5100869;28;20659;-48
2021/12/19 08:58:29;;;;;;;19.42;8.85;;;;;;;;;;5096551;28;20284;-48
2021/12/19 09:00:58;;;;;;;15.77;8.10;;;;;;;;;;5103640;28;20224;-48
2021/12/19 09:03:24;;;;;;;21.27;8.57;;;;;;;;;;5101448;28;20204;-48
2021/12/19 09:05:50;;;;;;;15.20;8.15;;;;;;;;;;5099838;28;20186;-48
2021/12/19 09:08:16;;;;;;;16.17;7.97;;;;;;;;;;5092732;28;20638;-48
2021/12/19 09:10:43;;;;;;;19.85;8.18;;;;;;;;;;5095759;28;20181;-48
2021/12/19 09:13:09;;;;;;;15.13;7.75;;;;;;;;;;5103524;28;20185;-48
2021/12/19 09:15:36;;;;;;;17.45;8.10;;;;;;;;;;5093284;28;20286;-48
2021/12/19 09:18:02;;;;;;;14.25;7.43;;;;;;;;;;5095242;28;20203;-48
2021/12/19 09:20:28;;;;;;;17.00;7.40;;;;;;;;;;5102629;28;20216;-48
2021/12/19 09:22:54;;;;;;;13.43;6.85;;;;;;;;;;5106218;28;20425;-48
2021/12/19 09:25:20;;;;;;;12.02;7.47;;;;;;;;;;5110367;28;20176;-48
2021/12/19 09:27:46;;;;;;;12.07;6.78;;;;;;;;;;5094245;28;20178;-48
2021/12/19 09:30:12;;;;;;;13.15;7.05;;;;;;;;;;5101247;28;20181;-48
2021/12/19 09:32:40;;;;;;;14.82;6.35;;;;;;;;;;5104659;28;20515;-48
2021/12/19 09:35:06;;;;;;;12.50;6.55;;;;;;;;;;5104452;28;20177;-48
2021/12/19 09:37:35;;;;;;;15.32;6.90;;;;;;;;;;5105391;28;20193;-48
2021/12/19 09:40:03;;;;;;;11.93;6.18;;;;;;;;;;5105938;28;20336;-48
2021/12/19 09:42:33;;;;;;;8.98;5.60;;;;;;;;;;5112757;28;20582;-48
2021/12/19 09:45:01;;;;;;;9.55;6.32;;;;;;;;;;5101406;28;20244;-48
2021/12/19 09:47:27;;;;;;;10.77;5.93;;;;;;;;;;5104051;28;20574;-48
2021/12/19 09:49:54;;;;;;;10.93;6.00;;;;;;;;;;5103804;28;20208;-48
2021/12/19 09:52:20;;;;;;;9.32;5.65;;;;;;;;;;5106833;28;20181;-48
2021/12/19 09:54:46;;;;;;;11.45;5.60;;;;;;;;;;5097714;28;20180;-48
2021/12/19 09:57:12;;;;;;;10.52;5.80;;;;;;;;;;5103200;28;20429;-48
2021/12/19 09:59:38;;;;;;;9.80;5.95;;;;;;;;;;5104425;28;20186;-47
2021/12/19 10:02:04;;;;;;;12.75;5.70;;;;;;;;;;5109963;28;20217;-48
2021/12/19 10:04:35;;;;;;;10.85;5.43;;;;;;;;;;5095988;28;20444;-48
2021/12/19 10:07:10;;;;;;;11.63;5.82;;;;;;;;;;5107944;28;20236;-48
2021/12/19 10:09:50;;;;;;;7.53;4.90;;;;;;;;;;5106170;28;20224;-48
2021/12/19 10:12:36;;;;;;;8.85;5.10;;;;;;;;;;5107577;28;20189;-48
2021/12/19 10:15:07;;;;;;;7.68;4.78;;;;;;;;;;5098047;28;20506;-48
2021/12/19 10:17:33;;;;;;;8.10;4.75;;;;;;;;;;5099969;28;20196;-48
2021/12/19 10:20:02;;;;;;;9.10;5.10;;;;;;;;;;5110089;28;20487;-48
2021/12/19 10:22:32;;;;;;;7.45;4.75;;;;;;;;;;5106814;28;20513;-48
2021/12/19 10:25:11;;;;;;;9.88;5.15;;;;;;;;;;5107187;28;20610;-48
2021/12/19 10:27:38;;;;;;;8.45;4.65;;;;;;;;;;5095295;28;20448;-48
2021/12/19 10:30:09;;;;;;;7.78;4.05;;;;;;;;;;5105820;28;20235;-48
2021/12/19 10:32:35;;;;;;;8.48;4.57;;;;;;;;;;5100930;28;20170;-47
2021/12/19 10:35:18;;;;;;;6.43;4.10;;;;;;;;;;5101222;28;20181;-48
2021/12/19 10:37:44;;;;;;;7.45;4.22;;;;;;;;;;5099202;28;20184;-48
2021/12/19 10:40:11;;;;;;;5.43;4.10;;;;;;;;;;5110589;28;20176;-48
2021/12/19 10:42:43;;;;;;;7.65;3.75;;;;;;;;;;5098474;28;20190;-48
2021/12/19 10:48:15;;;;;;;9.18;4.20;;;;;;;;;;5094988;28;20234;-48
2021/12/19 10:51:01;;;;;;;7.00;4.10;;;;;;;;;;5113896;28;20189;-48
2021/12/19 10:53:30;;;;;;;6.78;4.05;;;;;;;;;;5084484;28;20200;-48
2021/12/19 10:55:56;;;;;;;6.00;3.78;;;;;;;;;;5112968;28;20177;-48
2021/12/19 10:58:28;;;;;;;6.60;3.47;;;;;;;;;;5096274;28;20549;-48
2021/12/19 11:01:03;;;;;;;7.55;4.10;;;;;;;;;;5112800;28;20197;-48
2021/12/19 11:03:37;;;;;;;5.53;4.05;;;;;;;;;;5097762;28;20174;-48
2021/12/19 11:06:23;;;;;;;6.35;4.00;;;;;;;;;;5113048;28;20459;-48
2021/12/19 11:08:51;;;;;;;4.93;3.47;;;;;;;;;;5091154;28;20184;-47
2021/12/19 11:11:39;;;;;;;5.50;3.45;;;;;;;;;;5110728;28;20177;-48
2021/12/19 11:14:05;;;;;;;7.15;3.60;;;;;;;;;;5093940;28;20188;-48
2021/12/19 11:16:31;;;;;;;6.10;3.60;;;;;;;;;;5099874;28;20390;-48
2021/12/19 11:18:57;;;;;;;3.88;3.00;;;;;;;;;;5103004;28;20612;-48
2021/12/19 11:21:23;;;;;;;3.75;3.30;;;;;;;;;;5109399;28;20233;-48
2021/12/19 11:23:49;;;;;;;5.22;3.45;;;;;;;;;;5105573;28;20177;-48
2021/12/19 11:26:18;;;;;;;7.50;3.40;;;;;;;;;;5112570;28;20484;-48
2021/12/19 11:28:44;;;;;;;5.10;3.83;;;;;;;;;;5105051;28;20173;-48
2021/12/19 11:31:12;;;;;;;6.35;3.40;;;;;;;;;;5105706;28;20200;-48
2021/12/19 11:33:38;;;;;;;3.83;3.03;;;;;;;;;;5098988;28;20535;-48
2021/12/19 11:36:05;;;;;;;4.25;2.90;;;;;;;;;;5108520;28;20178;-49
2021/12/19 11:38:32;;;;;;;4.43;3.05;;;;;;;;;;5104357;28;20204;-48
2021/12/19 11:41:06;;;;;;;4.68;3.63;;;;;;;;;;5108334;28;20201;-48
2021/12/19 11:43:43;;;;;;;6.20;3.88;;;;;;;;;;5095259;28;20185;-48
2021/12/19 11:46:16;;;;;;;3.92;3.13;;;;;;;;;;5113758;28;20165;-48
2021/12/19 11:48:42;;;;;;;4.70;3.42;;;;;;;;;;5096151;28;20335;-48
2021/12/19 11:51:16;;;;;;;5.43;3.33;;;;;;;;;;5092320;28;20182;-48
2021/12/19 11:53:43;;;;;;;4.55;3.08;;;;;;;;;;5099747;28;20184;-48
2021/12/19 11:56:16;;;;;;;8.10;3.53;;;;;;;;;;5107278;28;20185;-48
2021/12/19 11:58:49;;;;;;;5.22;3.53;;;;;;;;;;5102811;28;20181;-48
2021/12/19 12:01:22;;;;;;;7.80;3.67;;;;;;;;;;5113536;28;20702;-48
2021/12/19 12:03:49;;;;;;;4.60;3.53;;;;;;;;;;5095871;28;20169;-48
2021/12/19 12:06:16;;;;;;;4.97;3.28;;;;;;;;;;5105331;28;20189;-48
2021/12/19 12:09:02;;;;;;;7.30;3.90;;;;;;;;;;5099275;28;20170;-48
2021/12/19 12:11:29;;;;;;;7.40;3.55;;;;;;;;;;5106795;28;20468;-48
2021/12/19 12:13:55;;;;;;;5.47;3.35;;;;;;;;;;5099259;28;20587;-48
2021/12/19 12:16:28;;;;;;;7.47;3.53;;;;;;;;;;5107047;28;20188;-48
2021/12/19 12:18:58;;;;;;;8.15;3.20;;;;;;;;;;5093464;28;20197;-48
2021/12/19 12:21:50;;;;;;;7.53;3.28;;;;;;;;;;5102672;28;20671;-48
2021/12/19 12:24:16;;;;;;;4.93;3.13;;;;;;;;;;5102054;28;20184;-48
2021/12/19 12:26:53;;;;;;;4.82;3.25;;;;;;;;;;5096397;28;20607;-48
2021/12/19 12:29:19;;;;;;;6.88;3.42;;;;;;;;;;5093289;28;20177;-48
2021/12/19 12:31:45;;;;;;;5.43;3.13;;;;;;;;;;5084428;28;20185;-48
2021/12/19 12:34:13;;;;;;;5.00;2.90;;;;;;;;;;5095130;28;20267;-48
2021/12/19 12:36:40;;;;;;;5.75;3.42;;;;;;;;;;5097583;28;20273;-48
2021/12/19 12:39:10;;;;;;;5.97;2.97;;;;;;;;;;5103377;28;20192;-48
2021/12/19 12:44:06;;;;;;;5.00;3.00;;;;;;;;;;5091053;28;20254;-48
2021/12/19 12:46:32;;;;;;;6.30;2.53;;;;;;;;;;5103913;28;20722;-48
2021/12/19 12:49:00;;;;;;;6.28;2.90;;;;;;;;;;5097893;28;20181;-48
2021/12/19 12:51:28;;;;;;;5.60;2.80;;;;;;;;;;5110415;28;20233;-48
2021/12/19 12:53:56;;;;;;;5.70;2.80;;;;;;;;;;5099590;28;20194;-48
2021/12/19 12:56:31;;;;;;;6.25;2.72;;;;;;;;;;5103877;28;20263;-48
2021/12/19 12:58:57;;;;;;;5.70;2.92;;;;;;;;;;5094556;28;20173;-48
2021/12/19 13:01:23;;;;;;;5.03;2.50;;;;;;;;;;5117678;28;20211;-48
2021/12/19 13:03:55;;;;;;;6.60;2.88;;;;;;;;;;5099011;28;20195;-48
2021/12/19 13:06:36;;;;;;;6.20;2.85;;;;;;;;;;5111399;28;20604;-48
2021/12/19 13:09:09;;;;;;;3.55;2.63;;;;;;;;;;5097311;28;20200;-48
2021/12/19 13:11:36;;;;;;;6.43;2.70;;;;;;;;;;5114145;28;20604;-48
2021/12/19 13:14:14;;;;;;;3.65;2.40;;;;;;;;;;5098657;28;20192;-48
2021/12/19 13:16:41;;;;;;;2.97;2.40;;;;;;;;;;5103475;28;20276;-48
2021/12/19 13:19:08;;;;;;;4.10;2.33;;;;;;;;;;5106334;28;20177;-48
2021/12/19 13:21:52;;;;;;;4.30;2.35;;;;;;;;;;5101153;28;20194;-48
2021/12/19 13:24:24;;;;;;;4.65;2.15;;;;;;;;;;5099040;28;20268;-48
2021/12/19 13:27:02;;;;;;;5.25;2.42;;;;;;;;;;5096490;28;20644;-48
2021/12/19 13:29:29;;;;;;;3.83;2.10;;;;;;;;;;5103185;28;20196;-48
2021/12/19 13:31:55;;;;;;;4.82;2.30;;;;;;;;;;5109952;28;20572;-48
2021/12/19 13:34:21;;;;;;;4.80;2.10;;;;;;;;;;5094509;28;20268;-48
2021/12/19 13:37:02;;;;;;;3.97;2.25;;;;;;;;;;5093207;28;20201;-48
2021/12/19 13:39:28;;;;;;;2.80;1.90;;;;;;;;;;5104881;28;20209;-48
2021/12/19 13:41:53;;;;;;;3.72;2.00;;;;;;;;;;5103343;28;20220;-48
2021/12/19 13:44:32;;;;;;;5.63;2.38;;;;;;;;;;5094375;28;20215;-48
2021/12/19 13:46:58;;;;;;;3.33;1.80;;;;;;;;;;5098166;28;20193;-48
2021/12/19 13:49:24;;;;;;;4.60;1.60;;;;;;;;;;5093019;28;20212;-48
2021/12/19 13:51:50;;;;;;;3.97;2.25;;;;;;;;;;5107933;28;20201;-48
2021/12/19 13:54:27;;;;;;;3.85;2.10;;;;;;;;;;5102932;28;20196;-48
2021/12/19 13:56:53;;;;;;;5.63;2.00;;;;;;;;;;5091368;28;20185;-48
2021/12/19 13:59:20;;;;;;;6.95;2.05;;;;;;;;;;5101852;28;20192;-48
2021/12/19 14:01:46;;;;;;;2.78;1.98;;;;;;;;;;5103137;28;20205;-47
2021/12/19 14:04:23;;;;;;;2.70;1.85;;;;;;;;;;5099727;28;20189;-48
2021/12/19 14:06:50;;;;;;;2.58;1.80;;;;;;;;;;5102909;28;20196;-48
2021/12/19 14:09:18;;;;;;;2.33;1.58;;;;;;;;;;5094301;28;20180;-48
2021/12/19 14:11:45;;;;;;;5.65;1.70;;;;;;;;;;5108854;28;20215;-48
2021/12/19 14:14:27;;;;;;;4.03;2.17;;;;;;;;;;5106245;28;20246;-48
2021/12/19 14:17:10;;;;;;;2.25;1.70;;;;;;;;;;5098895;28;20200;-48
2021/12/19 14:19:37;;;;;;;4.35;1.75;;;;;;;;;;5095236;28;20284;-48
2021/12/19 14:22:06;;;;;;;4.55;1.42;;;;;;;;;;5093967;28;20233;-48
2021/12/19 14:24:41;;;;;;;2.42;1.52;;;;;;;;;;5093849;28;20440;-48
2021/12/19 14:27:10;;;;;;;4.13;1.92;;;;;;;;;;5101319;28;20204;-48
2021/12/19 14:29:37;;;;;;;5.07;1.55;;;;;;;;;;5094112;28;20596;-48
2021/12/19 14:32:11;;;;;;;3.63;1.77;;;;;;;;;;5107818;28;20598;-48
2021/12/19 14:34:37;;;;;;;2.72;1.55;;;;;;;;;;5098689;28;20202;-48
2021/12/19 14:37:14;;;;;;;4.88;1.60;;;;;;;;;;5105833;28;20563;-48
2021/12/19 14:39:40;;;;;;;4.55;1.60;;;;;;;;;;5095576;28;20195;-47
2021/12/19 14:42:13;;;;;;;4.32;1.70;;;;;;;;;;5092287;28;20202;-48
2021/12/19 14:44:40;;;;;;;2.83;1.50;;;;;;;;;;5105403;28;20185;-48
2021/12/19 14:47:07;;;;;;;3.15;1.45;;;;;;;;;;5091848;28;20178;-48
2021/12/19 14:49:37;;;;;;;5.13;1.38;;;;;;;;;;5090697;28;20452;-48
2021/12/19 14:52:03;;;;;;;2.08;1.40;;;;;;;;;;5105027;28;20173;-48
2021/12/19 14:54:29;;;;;;;4.40;1.33;;;;;;;;;;5103025;28;20193;-48
2021/12/19 14:56:57;;;;;;;3.78;1.45;;;;;;;;;;5103345;28;20227;-48
2021/12/19 14:59:27;;;;;;;3.17;1.50;;;;;;;;;;5096610;28;20500;-48
2021/12/19 15:01:53;;;;;;;2.78;1.27;;;;;;;;;;5097703;28;20206;-48
2021/12/19 15:04:20;;;;;;;3.28;1.42;;;;;;;;;;5094975;28;20220;-48
2021/12/19 15:06:52;;;;;;;2.45;1.55;;;;;;;;;;5093809;28;20266;-48
2021/12/19 15:09:19;;;;;;;1.23;1.13;;;;;;;;;;5092986;28;20182;-48
2021/12/19 15:11:46;;;;;;;2.08;1.10;;;;;;;;;;5108718;28;20260;-48
2021/12/19 15:14:12;;;;;;;1.50;1.20;;;;;;;;;;5094504;28;20242;-48
2021/12/19 15:16:39;;;;;;;2.20;1.33;;;;;;;;;;5103249;28;20253;-48
2021/12/19 15:19:09;;;;;;;3.92;1.20;;;;;;;;;;5097544;28;20182;-48
2021/12/19 15:21:36;;;;;;;1.90;1.10;;;;;;;;;;5106205;28;20213;-48
2021/12/19 15:24:02;;;;;;;1.63;1.10;;;;;;;;;;5101968;28;20173;-48
2021/12/19 15:26:28;;;;;;;3.03;1.20;;;;;;;;;;5106691;28;20173;-48
2021/12/19 15:28:54;;;;;;;2.08;1.10;;;;;;;;;;5090063;28;20213;-48
2021/12/19 15:31:22;;;;;;;0.98;0.95;;;;;;;;;;5095657;28;20488;-48
2021/12/19 15:33:49;;;;;;;1.83;0.93;;;;;;;;;;5106846;28;20554;-48
2021/12/19 15:36:15;;;;;;;5.38;1.83;;;;;;;;;;5104125;28;20209;-48
2021/12/19 15:38:42;;;;;;;6.82;2.85;;;;;;;;;;5096842;28;20575;-48
2021/12/19 15:41:08;;;;;;;8.32;3.30;;;;;;;;;;5103852;28;20224;-47
2021/12/19 15:43:34;;;;;;;4.97;3.33;;;;;;;;;;5104170;28;20198;-49